sensor_id;sensor_type;location;lat;lon;timestamp;temperature;humidity
4245;DHT22;2136;48.502;9.194;2024-01-06T00:00:50;8.90;99.90
4245;DHT22;2136;48.502;9.194;2024-01-06T00:03:17;8.90;99.90
4245;DHT22;2136;48.502;9.194;2024-01-06T00:05:44;8.90;99.90
4245;DHT22;2136;48.502;9.194;2024-01-06T00:08:11;8.90;99.90
4245;DHT22;2136;48.502;9.194;2024-01-06T00:10:37;8.90;99.90
4245;DHT22;2136;48.502;9.194;2024-01-06T00:13:04;8.90;99.90
4245;DHT22;2136;48.502;9.194;2024-01-06T00:15:31;8.90;99.90
4245;DHT22;2136;48.502;9.194;2024-01-06T00:17:59;8.80;99.90
4245;DHT22;2136;48.502;9.194;2024-01-06T00:20:26;8.80;99.90
4245;DHT22;2136;48.502;9.194;2024-01-06T00:22:53;8.90;99.90
4245;DHT22;2136;48.502;9.194;2024-01-06T00:25:22;8.80;99.90
4245;DHT22;2136;48.502;9.194;2024-01-06T00:27:48;8.80;99.70
4245;DHT22;2136;48.502;9.194;2024-01-06T00:30:15;8.80;99.90
4245;DHT22;2136;48.502;9.194;2024-01-06T00:32:42;8.80;99.90
4245;DHT22;2136;48.502;9.194;2024-01-06T00:35:10;8.80;99.90
4245;DHT22;2136;48.502;9.194;2024-01-06T00:37:37;8.80;99.90
4245;DHT22;2136;48.502;9.194;2024-01-06T00:40:05;8.80;99.90
4245;DHT22;2136;48.502;9.194;2024-01-06T00:42:32;8.80;99.90
4245;DHT22;2136;48.502;9.194;2024-01-06T00:44:59;8.80;99.90
4245;DHT22;2136;48.502;9.194;2024-01-06T00:47:25;8.80;99.90
4245;DHT22;2136;48.502;9.194;2024-01-06T00:49:52;8.80;99.90
4245;DHT22;2136;48.502;9.194;2024-01-06T00:52:20;8.70;99.90
4245;DHT22;2136;48.502;9.194;2024-01-06T00:54:47;8.70;99.90
4245;DHT22;2136;48.502;9.194;2024-01-06T00:57:14;8.70;99.90
4245;DHT22;2136;48.502;9.194;2024-01-06T00:59:41;8.70;99.90
4245;DHT22;2136;48.502;9.194;2024-01-06T01:02:07;8.70;99.90
4245;DHT22;2136;48.502;9.194;2024-01-06T01:04:34;8.70;99.90
4245;DHT22;2136;48.502;9.194;2024-01-06T01:07:01;8.70;99.90
4245;DHT22;2136;48.502;9.194;2024-01-06T01:09:29;8.70;99.90
4245;DHT22;2136;48.502;9.194;2024-01-06T01:11:56;8.60;99.90
4245;DHT22;2136;48.502;9.194;2024-01-06T01:14:23;8.60;99.90
4245;DHT22;2136;48.502;9.194;2024-01-06T01:16:50;8.60;99.90
4245;DHT22;2136;48.502;9.194;2024-01-06T01:19:17;8.50;99.90
4245;DHT22;2136;48.502;9.194;2024-01-06T01:21:43;8.60;99.90
4245;DHT22;2136;48.502;9.194;2024-01-06T01:24:10;8.50;99.90
4245;DHT22;2136;48.502;9.194;2024-01-06T01:26:38;8.50;99.90
4245;DHT22;2136;48.502;9.194;2024-01-06T01:29:05;8.50;99.90
4245;DHT22;2136;48.502;9.194;2024-01-06T01:31:32;8.50;99.90
4245;DHT22;2136;48.502;9.194;2024-01-06T01:33:59;8.50;99.90
4245;DHT22;2136;48.502;9.194;2024-01-06T01:36:26;8.50;99.90
4245;DHT22;2136;48.502;9.194;2024-01-06T01:38:53;8.50;99.90
4245;DHT22;2136;48.502;9.194;2024-01-06T01:41:20;8.50;99.90
4245;DHT22;2136;48.502;9.194;2024-01-06T01:43:48;8.50;99.90
4245;DHT22;2136;48.502;9.194;2024-01-06T01:46:21;8.50;99.90
4245;DHT22;2136;48.502;9.194;2024-01-06T01:48:48;8.50;99.90
4245;DHT22;2136;48.502;9.194;2024-01-06T01:51:14;8.40;99.90
4245;DHT22;2136;48.502;9.194;2024-01-06T01:53:42;8.50;99.90
4245;DHT22;2136;48.502;9.194;2024-01-06T01:56:09;8.40;99.90
4245;DHT22;2136;48.502;9.194;2024-01-06T01:58:36;8.40;99.90
4245;DHT22;2136;48.502;9.194;2024-01-06T02:01:04;8.40;99.90
4245;DHT22;2136;48.502;9.194;2024-01-06T02:03:31;8.40;99.90
4245;DHT22;2136;48.502;9.194;2024-01-06T02:05:58;8.40;99.90
4245;DHT22;2136;48.502;9.194;2024-01-06T02:08:25;8.40;99.90
4245;DHT22;2136;48.502;9.194;2024-01-06T02:10:54;8.40;99.90
4245;DHT22;2136;48.502;9.194;2024-01-06T02:13:22;8.40;99.90
4245;DHT22;2136;48.502;9.194;2024-01-06T02:15:49;8.30;99.90
4245;DHT22;2136;48.502;9.194;2024-01-06T02:18:17;8.30;99.90
4245;DHT22;2136;48.502;9.194;2024-01-06T02:20:44;8.30;99.90
4245;DHT22;2136;48.502;9.194;2024-01-06T02:23:14;8.30;99.90
4245;DHT22;2136;48.502;9.194;2024-01-06T02:25:41;8.30;99.90
4245;DHT22;2136;48.502;9.194;2024-01-06T02:28:07;8.30;99.90
4245;DHT22;2136;48.502;9.194;2024-01-06T02:30:34;8.20;99.90
4245;DHT22;2136;48.502;9.194;2024-01-06T02:33:01;8.20;99.90
4245;DHT22;2136;48.502;9.194;2024-01-06T02:35:28;8.30;99.90
4245;DHT22;2136;48.502;9.194;2024-01-06T02:37:55;8.20;99.90
4245;DHT22;2136;48.502;9.194;2024-01-06T02:40:23;8.30;99.90
4245;DHT22;2136;48.502;9.194;2024-01-06T02:42:49;8.30;99.90
4245;DHT22;2136;48.502;9.194;2024-01-06T02:45:16;8.30;99.90
4245;DHT22;2136;48.502;9.194;2024-01-06T02:47:43;8.30;99.90
4245;DHT22;2136;48.502;9.194;2024-01-06T02:50:10;8.30;99.90
4245;DHT22;2136;48.502;9.194;2024-01-06T02:52:37;8.30;99.90
4245;DHT22;2136;48.502;9.194;2024-01-06T02:55:04;8.30;99.90
4245;DHT22;2136;48.502;9.194;2024-01-06T02:57:32;8.30;99.90
4245;DHT22;2136;48.502;9.194;2024-01-06T02:59:59;8.30;99.90
4245;DHT22;2136;48.502;9.194;2024-01-06T03:02:26;8.30;99.80
4245;DHT22;2136;48.502;9.194;2024-01-06T03:04:53;8.20;99.50
4245;DHT22;2136;48.502;9.194;2024-01-06T03:07:20;8.20;99.40
4245;DHT22;2136;48.502;9.194;2024-01-06T03:09:47;8.20;99.40
4245;DHT22;2136;48.502;9.194;2024-01-06T03:12:14;8.20;99.60
4245;DHT22;2136;48.502;9.194;2024-01-06T03:14:42;8.20;99.90
4245;DHT22;2136;48.502;9.194;2024-01-06T03:17:09;8.20;99.90
4245;DHT22;2136;48.502;9.194;2024-01-06T03:19:36;8.20;99.90
4245;DHT22;2136;48.502;9.194;2024-01-06T03:22:03;8.20;99.80
4245;DHT22;2136;48.502;9.194;2024-01-06T03:24:30;8.10;99.80
4245;DHT22;2136;48.502;9.194;2024-01-06T03:26:57;8.10;99.70
4245;DHT22;2136;48.502;9.194;2024-01-06T03:29:24;8.10;99.90
4245;DHT22;2136;48.502;9.194;2024-01-06T03:31:52;8.10;99.90
4245;DHT22;2136;48.502;9.194;2024-01-06T03:34:19;8.10;99.90
4245;DHT22;2136;48.502;9.194;2024-01-06T03:36:45;8.20;99.90
4245;DHT22;2136;48.502;9.194;2024-01-06T03:39:12;8.10;99.90
4245;DHT22;2136;48.502;9.194;2024-01-06T03:41:39;8.10;99.90
4245;DHT22;2136;48.502;9.194;2024-01-06T03:44:06;8.10;99.80
4245;DHT22;2136;48.502;9.194;2024-01-06T03:46:34;8.10;99.90
4245;DHT22;2136;48.502;9.194;2024-01-06T03:49:02;8.10;99.90
4245;DHT22;2136;48.502;9.194;2024-01-06T03:51:29;8.00;99.80
4245;DHT22;2136;48.502;9.194;2024-01-06T03:53:56;8.00;99.70
4245;DHT22;2136;48.502;9.194;2024-01-06T03:56:22;8.00;99.80
4245;DHT22;2136;48.502;9.194;2024-01-06T03:58:49;8.00;99.80
4245;DHT22;2136;48.502;9.194;2024-01-06T04:01:16;8.00;99.50
4245;DHT22;2136;48.502;9.194;2024-01-06T04:03:43;8.00;99.50
4245;DHT22;2136;48.502;9.194;2024-01-06T04:06:11;8.00;99.50
4245;DHT22;2136;48.502;9.194;2024-01-06T04:08:39;8.00;99.20
4245;DHT22;2136;48.502;9.194;2024-01-06T04:11:06;8.00;99.00
4245;DHT22;2136;48.502;9.194;2024-01-06T04:13:33;8.00;99.10
4245;DHT22;2136;48.502;9.194;2024-01-06T04:15:59;7.90;99.20
4245;DHT22;2136;48.502;9.194;2024-01-06T04:18:26;8.00;99.20
4245;DHT22;2136;48.502;9.194;2024-01-06T04:20:54;7.90;99.20
4245;DHT22;2136;48.502;9.194;2024-01-06T04:23:22;7.90;98.90
4245;DHT22;2136;48.502;9.194;2024-01-06T04:25:49;7.90;99.00
4245;DHT22;2136;48.502;9.194;2024-01-06T04:28:16;7.90;99.00
4245;DHT22;2136;48.502;9.194;2024-01-06T04:30:42;7.90;99.00
4245;DHT22;2136;48.502;9.194;2024-01-06T04:33:09;7.90;98.90
4245;DHT22;2136;48.502;9.194;2024-01-06T04:35:36;7.90;98.80
4245;DHT22;2136;48.502;9.194;2024-01-06T04:38:03;7.90;98.90
4245;DHT22;2136;48.502;9.194;2024-01-06T04:40:31;7.80;98.70
4245;DHT22;2136;48.502;9.194;2024-01-06T04:42:58;7.80;98.60
4245;DHT22;2136;48.502;9.194;2024-01-06T04:45:25;7.80;98.50
4245;DHT22;2136;48.502;9.194;2024-01-06T04:47:51;7.80;98.20
4245;DHT22;2136;48.502;9.194;2024-01-06T04:50:18;7.80;98.10
4245;DHT22;2136;48.502;9.194;2024-01-06T04:52:45;7.70;97.90
4245;DHT22;2136;48.502;9.194;2024-01-06T04:55:12;7.70;97.70
4245;DHT22;2136;48.502;9.194;2024-01-06T04:57:40;7.70;97.60
4245;DHT22;2136;48.502;9.194;2024-01-06T05:00:07;7.70;97.60
4245;DHT22;2136;48.502;9.194;2024-01-06T05:02:34;7.70;97.60
4245;DHT22;2136;48.502;9.194;2024-01-06T05:05:01;7.80;97.60
4245;DHT22;2136;48.502;9.194;2024-01-06T05:07:28;7.70;97.80
4245;DHT22;2136;48.502;9.194;2024-01-06T05:09:55;7.70;97.90
4245;DHT22;2136;48.502;9.194;2024-01-06T05:12:22;7.70;97.90
4245;DHT22;2136;48.502;9.194;2024-01-06T05:14:50;7.70;97.80
4245;DHT22;2136;48.502;9.194;2024-01-06T05:17:17;7.70;98.00
4245;DHT22;2136;48.502;9.194;2024-01-06T05:19:44;7.70;97.90
4245;DHT22;2136;48.502;9.194;2024-01-06T05:22:10;7.70;97.90
4245;DHT22;2136;48.502;9.194;2024-01-06T05:24:37;7.70;97.80
4245;DHT22;2136;48.502;9.194;2024-01-06T05:27:04;7.70;97.60
4245;DHT22;2136;48.502;9.194;2024-01-06T05:29:31;7.70;97.20
4245;DHT22;2136;48.502;9.194;2024-01-06T05:31:59;7.70;96.90
4245;DHT22;2136;48.502;9.194;2024-01-06T05:34:26;7.70;96.70
4245;DHT22;2136;48.502;9.194;2024-01-06T05:36:53;7.70;96.70
4245;DHT22;2136;48.502;9.194;2024-01-06T05:39:19;7.70;96.60
4245;DHT22;2136;48.502;9.194;2024-01-06T05:41:46;7.70;96.50
4245;DHT22;2136;48.502;9.194;2024-01-06T05:44:13;7.70;96.30
4245;DHT22;2136;48.502;9.194;2024-01-06T05:46:40;7.70;95.90
4245;DHT22;2136;48.502;9.194;2024-01-06T05:49:08;7.70;95.60
4245;DHT22;2136;48.502;9.194;2024-01-06T05:51:35;7.70;95.40
4245;DHT22;2136;48.502;9.194;2024-01-06T05:54:02;7.70;95.30
4245;DHT22;2136;48.502;9.194;2024-01-06T05:56:29;7.70;95.20
4245;DHT22;2136;48.502;9.194;2024-01-06T05:58:56;7.70;95.30
4245;DHT22;2136;48.502;9.194;2024-01-06T06:01:23;7.70;95.10
4245;DHT22;2136;48.502;9.194;2024-01-06T06:03:50;7.70;94.80
4245;DHT22;2136;48.502;9.194;2024-01-06T06:06:18;7.70;94.90
4245;DHT22;2136;48.502;9.194;2024-01-06T06:08:46;7.70;95.00
4245;DHT22;2136;48.502;9.194;2024-01-06T06:11:14;7.70;95.10
4245;DHT22;2136;48.502;9.194;2024-01-06T06:13:41;7.80;95.00
4245;DHT22;2136;48.502;9.194;2024-01-06T06:16:09;7.80;94.80
4245;DHT22;2136;48.502;9.194;2024-01-06T06:18:37;7.80;94.50
4245;DHT22;2136;48.502;9.194;2024-01-06T06:21:05;7.80;94.40
4245;DHT22;2136;48.502;9.194;2024-01-06T06:23:34;7.80;94.20
4245;DHT22;2136;48.502;9.194;2024-01-06T06:26:04;7.70;93.70
4245;DHT22;2136;48.502;9.194;2024-01-06T06:28:31;7.70;93.40
4245;DHT22;2136;48.502;9.194;2024-01-06T06:30:59;7.70;93.00
4245;DHT22;2136;48.502;9.194;2024-01-06T06:33:27;7.70;92.70
4245;DHT22;2136;48.502;9.194;2024-01-06T06:35:53;7.70;92.30
4245;DHT22;2136;48.502;9.194;2024-01-06T06:38:20;7.60;92.10
4245;DHT22;2136;48.502;9.194;2024-01-06T06:40:48;7.60;92.00
4245;DHT22;2136;48.502;9.194;2024-01-06T06:43:15;7.60;91.80
4245;DHT22;2136;48.502;9.194;2024-01-06T06:45:42;7.60;91.70
4245;DHT22;2136;48.502;9.194;2024-01-06T06:48:09;7.60;91.50
4245;DHT22;2136;48.502;9.194;2024-01-06T06:50:36;7.50;91.40
4245;DHT22;2136;48.502;9.194;2024-01-06T06:53:03;7.50;91.50
4245;DHT22;2136;48.502;9.194;2024-01-06T06:55:30;7.50;91.50
4245;DHT22;2136;48.502;9.194;2024-01-06T06:57:58;7.50;91.40
4245;DHT22;2136;48.502;9.194;2024-01-06T07:00:25;7.50;91.50
4245;DHT22;2136;48.502;9.194;2024-01-06T07:02:52;7.60;91.70
4245;DHT22;2136;48.502;9.194;2024-01-06T07:05:18;7.60;91.70
4245;DHT22;2136;48.502;9.194;2024-01-06T07:07:45;7.50;91.70
4245;DHT22;2136;48.502;9.194;2024-01-06T07:10:12;7.60;91.90
4245;DHT22;2136;48.502;9.194;2024-01-06T07:12:39;7.50;92.00
4245;DHT22;2136;48.502;9.194;2024-01-06T07:15:08;7.60;92.20
4245;DHT22;2136;48.502;9.194;2024-01-06T07:17:36;7.60;92.20
4245;DHT22;2136;48.502;9.194;2024-01-06T07:20:04;7.60;92.40
4245;DHT22;2136;48.502;9.194;2024-01-06T07:22:32;7.60;92.70
4245;DHT22;2136;48.502;9.194;2024-01-06T07:25:00;7.60;92.80
4245;DHT22;2136;48.502;9.194;2024-01-06T07:27:26;7.60;92.80
4245;DHT22;2136;48.502;9.194;2024-01-06T07:29:53;7.60;92.50
4245;DHT22;2136;48.502;9.194;2024-01-06T07:32:22;7.60;92.40
4245;DHT22;2136;48.502;9.194;2024-01-06T07:34:50;7.60;92.40
4245;DHT22;2136;48.502;9.194;2024-01-06T07:37:17;7.60;92.10
4245;DHT22;2136;48.502;9.194;2024-01-06T07:39:44;7.60;92.00
4245;DHT22;2136;48.502;9.194;2024-01-06T07:42:09;7.60;91.50
4245;DHT22;2136;48.502;9.194;2024-01-06T07:44:37;7.60;91.20
4245;DHT22;2136;48.502;9.194;2024-01-06T07:47:04;7.60;91.10
4245;DHT22;2136;48.502;9.194;2024-01-06T07:49:32;7.60;91.00
4245;DHT22;2136;48.502;9.194;2024-01-06T07:51:59;7.50;91.00
4245;DHT22;2136;48.502;9.194;2024-01-06T07:54:26;7.50;91.00
4245;DHT22;2136;48.502;9.194;2024-01-06T07:56:53;7.50;90.80
4245;DHT22;2136;48.502;9.194;2024-01-06T07:59:20;7.50;90.80
4245;DHT22;2136;48.502;9.194;2024-01-06T08:01:47;7.50;90.90
4245;DHT22;2136;48.502;9.194;2024-01-06T08:04:14;7.60;90.90
4245;DHT22;2136;48.502;9.194;2024-01-06T08:06:42;7.60;91.10
4245;DHT22;2136;48.502;9.194;2024-01-06T08:09:09;7.60;91.30
4245;DHT22;2136;48.502;9.194;2024-01-06T08:11:36;7.70;91.50
4245;DHT22;2136;48.502;9.194;2024-01-06T08:14:03;7.70;91.50
4245;DHT22;2136;48.502;9.194;2024-01-06T08:16:29;7.80;91.40
4245;DHT22;2136;48.502;9.194;2024-01-06T08:18:57;7.80;91.10
4245;DHT22;2136;48.502;9.194;2024-01-06T08:21:25;7.80;90.70
4245;DHT22;2136;48.502;9.194;2024-01-06T08:23:53;7.80;90.40
4245;DHT22;2136;48.502;9.194;2024-01-06T08:26:21;7.80;90.10
4245;DHT22;2136;48.502;9.194;2024-01-06T08:28:48;7.90;89.80
4245;DHT22;2136;48.502;9.194;2024-01-06T08:31:15;7.90;89.40
4245;DHT22;2136;48.502;9.194;2024-01-06T08:33:41;7.90;89.00
4245;DHT22;2136;48.502;9.194;2024-01-06T08:36:08;8.00;88.70
4245;DHT22;2136;48.502;9.194;2024-01-06T08:38:35;8.00;88.30
4245;DHT22;2136;48.502;9.194;2024-01-06T08:41:04;8.00;87.70
4245;DHT22;2136;48.502;9.194;2024-01-06T08:43:30;8.00;87.30
4245;DHT22;2136;48.502;9.194;2024-01-06T08:45:57;8.00;86.90
4245;DHT22;2136;48.502;9.194;2024-01-06T08:48:25;8.10;86.80
4245;DHT22;2136;48.502;9.194;2024-01-06T08:50:51;8.20;86.00
4245;DHT22;2136;48.502;9.194;2024-01-06T08:53:18;8.20;85.60
4245;DHT22;2136;48.502;9.194;2024-01-06T08:55:45;8.20;85.10
4245;DHT22;2136;48.502;9.194;2024-01-06T08:58:13;8.30;84.70
4245;DHT22;2136;48.502;9.194;2024-01-06T09:00:40;8.30;84.20
4245;DHT22;2136;48.502;9.194;2024-01-06T09:03:07;8.40;83.50
4245;DHT22;2136;48.502;9.194;2024-01-06T09:05:35;8.40;83.10
4245;DHT22;2136;48.502;9.194;2024-01-06T09:08:02;8.40;82.90
4245;DHT22;2136;48.502;9.194;2024-01-06T09:10:28;8.50;82.80
4245;DHT22;2136;48.502;9.194;2024-01-06T09:12:55;8.60;82.40
4245;DHT22;2136;48.502;9.194;2024-01-06T09:15:24;8.60;81.70
4245;DHT22;2136;48.502;9.194;2024-01-06T09:17:50;8.60;80.80
4245;DHT22;2136;48.502;9.194;2024-01-06T09:20:18;8.70;80.30
4245;DHT22;2136;48.502;9.194;2024-01-06T09:22:48;8.70;80.10
4245;DHT22;2136;48.502;9.194;2024-01-06T09:25:15;8.70;80.30
4245;DHT22;2136;48.502;9.194;2024-01-06T09:27:42;8.80;79.90
4245;DHT22;2136;48.502;9.194;2024-01-06T09:30:09;8.90;79.00
4245;DHT22;2136;48.502;9.194;2024-01-06T09:32:37;8.90;78.30
4245;DHT22;2136;48.502;9.194;2024-01-06T09:35:05;9.00;77.50
4245;DHT22;2136;48.502;9.194;2024-01-06T09:37:31;9.10;77.60
4245;DHT22;2136;48.502;9.194;2024-01-06T09:39:58;9.20;77.60
4245;DHT22;2136;48.502;9.194;2024-01-06T09:42:25;9.30;76.90
4245;DHT22;2136;48.502;9.194;2024-01-06T09:44:52;9.40;76.20
4245;DHT22;2136;48.502;9.194;2024-01-06T09:47:22;9.50;75.50
4245;DHT22;2136;48.502;9.194;2024-01-06T09:49:50;9.60;74.50
4245;DHT22;2136;48.502;9.194;2024-01-06T09:52:22;9.60;72.60
4245;DHT22;2136;48.502;9.194;2024-01-06T09:54:51;9.60;72.10
4245;DHT22;2136;48.502;9.194;2024-01-06T09:57:19;9.60;71.50
4245;DHT22;2136;48.502;9.194;2024-01-06T09:59:46;9.50;71.20
4245;DHT22;2136;48.502;9.194;2024-01-06T10:02:15;9.50;70.80
4245;DHT22;2136;48.502;9.194;2024-01-06T10:04:42;9.50;70.80
4245;DHT22;2136;48.502;9.194;2024-01-06T10:07:11;9.50;70.90
4245;DHT22;2136;48.502;9.194;2024-01-06T10:09:39;9.50;70.50
4245;DHT22;2136;48.502;9.194;2024-01-06T10:12:07;9.50;70.40
4245;DHT22;2136;48.502;9.194;2024-01-06T10:14:34;9.50;70.30
4245;DHT22;2136;48.502;9.194;2024-01-06T10:17:01;9.50;70.10
4245;DHT22;2136;48.502;9.194;2024-01-06T10:19:28;9.40;69.90
4245;DHT22;2136;48.502;9.194;2024-01-06T10:21:55;9.40;69.60
4245;DHT22;2136;48.502;9.194;2024-01-06T10:24:27;9.40;69.10
4245;DHT22;2136;48.502;9.194;2024-01-06T10:26:54;9.30;68.90
4245;DHT22;2136;48.502;9.194;2024-01-06T10:29:21;9.30;68.80
4245;DHT22;2136;48.502;9.194;2024-01-06T10:31:47;9.20;68.60
4245;DHT22;2136;48.502;9.194;2024-01-06T10:34:15;9.20;68.60
4245;DHT22;2136;48.502;9.194;2024-01-06T10:36:42;9.40;68.20
4245;DHT22;2136;48.502;9.194;2024-01-06T10:39:09;9.20;67.30
4245;DHT22;2136;48.502;9.194;2024-01-06T10:41:38;9.10;66.70
4245;DHT22;2136;48.502;9.194;2024-01-06T10:44:08;9.10;67.00
4245;DHT22;2136;48.502;9.194;2024-01-06T10:46:36;9.10;67.00
4245;DHT22;2136;48.502;9.194;2024-01-06T10:49:05;9.10;66.80
4245;DHT22;2136;48.502;9.194;2024-01-06T10:51:37;9.10;67.00
4245;DHT22;2136;48.502;9.194;2024-01-06T10:54:05;9.10;67.00
4245;DHT22;2136;48.502;9.194;2024-01-06T10:56:37;9.00;65.90
4245;DHT22;2136;48.502;9.194;2024-01-06T10:59:05;9.00;65.60
4245;DHT22;2136;48.502;9.194;2024-01-06T11:01:34;9.00;65.50
4245;DHT22;2136;48.502;9.194;2024-01-06T11:04:02;9.00;65.40
4245;DHT22;2136;48.502;9.194;2024-01-06T11:06:31;8.90;65.60
4245;DHT22;2136;48.502;9.194;2024-01-06T11:09:02;8.90;66.00
4245;DHT22;2136;48.502;9.194;2024-01-06T11:11:31;9.00;66.30
4245;DHT22;2136;48.502;9.194;2024-01-06T11:14:21;9.00;65.80
4245;DHT22;2136;48.502;9.194;2024-01-06T11:16:48;9.00;65.90
4245;DHT22;2136;48.502;9.194;2024-01-06T11:19:44;9.00;65.80
4245;DHT22;2136;48.502;9.194;2024-01-06T11:22:19;9.10;66.30
4245;DHT22;2136;48.502;9.194;2024-01-06T11:24:47;9.10;66.20
4245;DHT22;2136;48.502;9.194;2024-01-06T11:27:17;9.20;66.40
4245;DHT22;2136;48.502;9.194;2024-01-06T11:29:46;9.30;66.10
4245;DHT22;2136;48.502;9.194;2024-01-06T11:32:19;9.40;65.60
4245;DHT22;2136;48.502;9.194;2024-01-06T11:34:50;9.40;65.40
4245;DHT22;2136;48.502;9.194;2024-01-06T11:37:24;9.40;65.40
4245;DHT22;2136;48.502;9.194;2024-01-06T11:39:52;9.40;65.30
4245;DHT22;2136;48.502;9.194;2024-01-06T11:42:19;9.50;65.00
4245;DHT22;2136;48.502;9.194;2024-01-06T11:44:52;9.50;64.80
4245;DHT22;2136;48.502;9.194;2024-01-06T11:47:21;9.50;65.00
4245;DHT22;2136;48.502;9.194;2024-01-06T11:49:52;9.60;65.20
4245;DHT22;2136;48.502;9.194;2024-01-06T11:52:21;9.60;65.20
4245;DHT22;2136;48.502;9.194;2024-01-06T11:54:48;9.70;65.20
4245;DHT22;2136;48.502;9.194;2024-01-06T11:57:15;9.80;65.30
4245;DHT22;2136;48.502;9.194;2024-01-06T11:59:42;9.80;65.10
4245;DHT22;2136;48.502;9.194;2024-01-06T12:02:12;9.90;64.80
4245;DHT22;2136;48.502;9.194;2024-01-06T12:04:39;10.00;62.70
4245;DHT22;2136;48.502;9.194;2024-01-06T12:07:08;10.00;62.40
4245;DHT22;2136;48.502;9.194;2024-01-06T12:09:35;10.00;62.50
4245;DHT22;2136;48.502;9.194;2024-01-06T12:12:03;10.00;62.40
4245;DHT22;2136;48.502;9.194;2024-01-06T12:14:31;10.00;62.40
4245;DHT22;2136;48.502;9.194;2024-01-06T12:16:59;10.10;61.90
4245;DHT22;2136;48.502;9.194;2024-01-06T12:19:30;10.00;61.80
4245;DHT22;2136;48.502;9.194;2024-01-06T12:21:57;9.90;62.60
4245;DHT22;2136;48.502;9.194;2024-01-06T12:24:26;9.80;62.20
4245;DHT22;2136;48.502;9.194;2024-01-06T12:26:55;9.70;62.40
4245;DHT22;2136;48.502;9.194;2024-01-06T12:29:22;9.60;62.60
4245;DHT22;2136;48.502;9.194;2024-01-06T12:31:49;9.60;62.50
4245;DHT22;2136;48.502;9.194;2024-01-06T12:34:17;9.50;62.80
4245;DHT22;2136;48.502;9.194;2024-01-06T12:36:48;9.40;64.00
4245;DHT22;2136;48.502;9.194;2024-01-06T12:39:18;9.40;63.80
4245;DHT22;2136;48.502;9.194;2024-01-06T12:41:45;9.30;64.10
4245;DHT22;2136;48.502;9.194;2024-01-06T12:44:12;9.30;64.20
4245;DHT22;2136;48.502;9.194;2024-01-06T12:46:39;9.30;64.50
4245;DHT22;2136;48.502;9.194;2024-01-06T12:49:06;9.30;64.80
4245;DHT22;2136;48.502;9.194;2024-01-06T12:51:33;9.30;64.90
4245;DHT22;2136;48.502;9.194;2024-01-06T12:54:01;9.30;65.10
4245;DHT22;2136;48.502;9.194;2024-01-06T12:56:28;9.30;65.20
4245;DHT22;2136;48.502;9.194;2024-01-06T12:58:55;9.30;65.00
4245;DHT22;2136;48.502;9.194;2024-01-06T13:01:22;9.30;64.80
4245;DHT22;2136;48.502;9.194;2024-01-06T13:03:49;9.30;64.60
4245;DHT22;2136;48.502;9.194;2024-01-06T13:06:17;9.30;64.90
4245;DHT22;2136;48.502;9.194;2024-01-06T13:08:44;9.30;65.10
4245;DHT22;2136;48.502;9.194;2024-01-06T13:11:13;9.30;65.20
4245;DHT22;2136;48.502;9.194;2024-01-06T13:13:39;9.30;65.40
4245;DHT22;2136;48.502;9.194;2024-01-06T13:16:06;9.30;65.60
4245;DHT22;2136;48.502;9.194;2024-01-06T13:18:34;9.30;65.60
4245;DHT22;2136;48.502;9.194;2024-01-06T13:21:02;9.30;65.50
4245;DHT22;2136;48.502;9.194;2024-01-06T13:23:28;9.30;65.40
4245;DHT22;2136;48.502;9.194;2024-01-06T13:25:55;9.30;65.50
4245;DHT22;2136;48.502;9.194;2024-01-06T13:28:24;9.30;65.30
4245;DHT22;2136;48.502;9.194;2024-01-06T13:30:51;9.20;65.20
4245;DHT22;2136;48.502;9.194;2024-01-06T13:33:19;9.20;65.30
4245;DHT22;2136;48.502;9.194;2024-01-06T13:35:45;9.20;65.60
4245;DHT22;2136;48.502;9.194;2024-01-06T13:38:12;9.20;65.90
4245;DHT22;2136;48.502;9.194;2024-01-06T13:40:39;9.10;66.00
4245;DHT22;2136;48.502;9.194;2024-01-06T13:43:06;9.10;66.10
4245;DHT22;2136;48.502;9.194;2024-01-06T13:45:36;9.10;66.10
4245;DHT22;2136;48.502;9.194;2024-01-06T13:48:03;9.10;66.00
4245;DHT22;2136;48.502;9.194;2024-01-06T13:50:30;9.10;65.90
4245;DHT22;2136;48.502;9.194;2024-01-06T13:52:57;9.10;66.20
4245;DHT22;2136;48.502;9.194;2024-01-06T13:55:23;9.00;66.20
4245;DHT22;2136;48.502;9.194;2024-01-06T13:57:50;9.00;66.10
4245;DHT22;2136;48.502;9.194;2024-01-06T14:00:17;9.00;65.80
4245;DHT22;2136;48.502;9.194;2024-01-06T14:02:47;9.00;65.90
4245;DHT22;2136;48.502;9.194;2024-01-06T14:05:14;8.90;65.90
4245;DHT22;2136;48.502;9.194;2024-01-06T14:07:41;8.90;66.00
4245;DHT22;2136;48.502;9.194;2024-01-06T14:10:11;8.90;66.30
4245;DHT22;2136;48.502;9.194;2024-01-06T14:12:39;8.80;66.50
4245;DHT22;2136;48.502;9.194;2024-01-06T14:15:07;8.80;66.70
4245;DHT22;2136;48.502;9.194;2024-01-06T14:17:34;8.80;67.10
4245;DHT22;2136;48.502;9.194;2024-01-06T14:20:04;8.80;67.30
4245;DHT22;2136;48.502;9.194;2024-01-06T14:22:31;8.80;67.40
4245;DHT22;2136;48.502;9.194;2024-01-06T14:24:58;8.80;67.80
4245;DHT22;2136;48.502;9.194;2024-01-06T14:27:24;8.90;67.80
4245;DHT22;2136;48.502;9.194;2024-01-06T14:29:54;8.90;67.80
4245;DHT22;2136;48.502;9.194;2024-01-06T14:32:21;8.80;67.70
4245;DHT22;2136;48.502;9.194;2024-01-06T14:34:49;8.80;67.90
4245;DHT22;2136;48.502;9.194;2024-01-06T14:37:17;8.80;68.10
4245;DHT22;2136;48.502;9.194;2024-01-06T14:39:44;8.80;68.30
4245;DHT22;2136;48.502;9.194;2024-01-06T14:42:11;8.80;68.40
4245;DHT22;2136;48.502;9.194;2024-01-06T14:44:38;8.80;68.70
4245;DHT22;2136;48.502;9.194;2024-01-06T14:47:05;8.80;68.80
4245;DHT22;2136;48.502;9.194;2024-01-06T14:49:33;8.80;69.10
4245;DHT22;2136;48.502;9.194;2024-01-06T14:52:00;8.80;69.30
4245;DHT22;2136;48.502;9.194;2024-01-06T14:54:29;8.80;69.30
4245;DHT22;2136;48.502;9.194;2024-01-06T14:56:58;8.80;69.30
4245;DHT22;2136;48.502;9.194;2024-01-06T14:59:25;8.80;69.40
4245;DHT22;2136;48.502;9.194;2024-01-06T15:01:52;8.80;69.30
4245;DHT22;2136;48.502;9.194;2024-01-06T15:04:19;8.80;69.50
4245;DHT22;2136;48.502;9.194;2024-01-06T15:06:46;8.80;69.60
4245;DHT22;2136;48.502;9.194;2024-01-06T15:09:13;8.80;69.60
4245;DHT22;2136;48.502;9.194;2024-01-06T15:11:41;8.80;69.80
4245;DHT22;2136;48.502;9.194;2024-01-06T15:14:08;8.80;69.80
4245;DHT22;2136;48.502;9.194;2024-01-06T15:16:35;8.80;69.80
4245;DHT22;2136;48.502;9.194;2024-01-06T15:19:03;8.70;69.60
4245;DHT22;2136;48.502;9.194;2024-01-06T15:21:29;8.70;69.70
4245;DHT22;2136;48.502;9.194;2024-01-06T15:23:59;8.70;70.00
4245;DHT22;2136;48.502;9.194;2024-01-06T15:26:26;8.70;70.10
4245;DHT22;2136;48.502;9.194;2024-01-06T15:28:54;8.70;70.00
4245;DHT22;2136;48.502;9.194;2024-01-06T15:31:23;8.70;70.10
4245;DHT22;2136;48.502;9.194;2024-01-06T15:33:50;8.70;70.10
4245;DHT22;2136;48.502;9.194;2024-01-06T15:36:17;8.60;70.30
4245;DHT22;2136;48.502;9.194;2024-01-06T15:38:44;8.60;70.50
4245;DHT22;2136;48.502;9.194;2024-01-06T15:41:11;8.60;70.50
4245;DHT22;2136;48.502;9.194;2024-01-06T15:43:37;8.60;70.60
4245;DHT22;2136;48.502;9.194;2024-01-06T15:46:06;8.50;70.90
4245;DHT22;2136;48.502;9.194;2024-01-06T15:48:33;8.50;71.30
4245;DHT22;2136;48.502;9.194;2024-01-06T15:51:01;8.50;71.40
4245;DHT22;2136;48.502;9.194;2024-01-06T15:53:29;8.50;71.40
4245;DHT22;2136;48.502;9.194;2024-01-06T15:55:56;8.50;71.70
4245;DHT22;2136;48.502;9.194;2024-01-06T15:58:23;8.50;71.70
4245;DHT22;2136;48.502;9.194;2024-01-06T16:00:50;8.50;71.70
4245;DHT22;2136;48.502;9.194;2024-01-06T16:03:18;8.50;71.90
4245;DHT22;2136;48.502;9.194;2024-01-06T16:05:45;8.50;72.20
4245;DHT22;2136;48.502;9.194;2024-01-06T16:08:11;8.40;72.30
4245;DHT22;2136;48.502;9.194;2024-01-06T16:10:38;8.40;72.50
4245;DHT22;2136;48.502;9.194;2024-01-06T16:13:06;8.40;72.70
4245;DHT22;2136;48.502;9.194;2024-01-06T16:15:33;8.40;72.80
4245;DHT22;2136;48.502;9.194;2024-01-06T16:18:00;8.40;72.80